sensor_id;sensor_type;location;lat;lon;timestamp;temperature;humidity
10441;DHT22;5268;49.346;9.522;2022-10-31T04:25:17;9.90;99.90
10441;DHT22;5268;49.346;9.522;2022-10-31T04:30:20;9.90;99.90
10441;DHT22;5268;49.346;9.522;2022-10-31T04:35:23;9.90;99.90
10441;DHT22;5268;49.346;9.522;2022-10-31T04:40:26;9.80;99.90
10441;DHT22;5268;49.346;9.522;2022-10-31T04:45:28;9.80;99.90
10441;DHT22;5268;49.346;9.522;2022-10-31T04:50:31;9.70;99.90
10441;DHT22;5268;49.346;9.522;2022-10-31T04:55:35;9.70;99.90
10441;DHT22;5268;49.346;9.522;2022-10-31T05:00:37;9.70;99.90
10441;DHT22;5268;49.346;9.522;2022-10-31T05:05:39;9.60;99.90
10441;DHT22;5268;49.346;9.522;2022-10-31T05:10:42;9.60;99.90
10441;DHT22;5268;49.346;9.522;2022-10-31T05:15:45;9.70;99.90
10441;DHT22;5268;49.346;9.522;2022-10-31T05:20:47;9.60;99.90
10441;DHT22;5268;49.346;9.522;2022-10-31T05:25:57;9.60;99.90
10441;DHT22;5268;49.346;9.522;2022-10-31T05:30:59;9.60;99.90
10441;DHT22;5268;49.346;9.522;2022-10-31T05:36:01;9.50;99.90
10441;DHT22;5268;49.346;9.522;2022-10-31T05:41:04;9.50;99.90
10441;DHT22;5268;49.346;9.522;2022-10-31T05:46:06;9.50;99.90
10441;DHT22;5268;49.346;9.522;2022-10-31T05:51:08;9.40;99.90
10441;DHT22;5268;49.346;9.522;2022-10-31T05:56:12;9.40;99.90
10441;DHT22;5268;49.346;9.522;2022-10-31T06:01:14;9.40;99.90
10441;DHT22;5268;49.346;9.522;2022-10-31T06:06:16;9.40;99.90
10441;DHT22;5268;49.346;9.522;2022-10-31T06:11:22;9.40;99.90
10441;DHT22;5268;49.346;9.522;2022-10-31T06:16:24;9.30;99.90
10441;DHT22;5268;49.346;9.522;2022-10-31T06:21:26;9.30;99.90
10441;DHT22;5268;49.346;9.522;2022-10-31T06:26:29;9.30;99.90
10441;DHT22;5268;49.346;9.522;2022-10-31T06:31:31;9.30;99.90
10441;DHT22;5268;49.346;9.522;2022-10-31T06:36:34;9.40;99.90
10441;DHT22;5268;49.346;9.522;2022-10-31T06:41:37;9.40;99.90
10441;DHT22;5268;49.346;9.522;2022-10-31T06:46:40;9.50;99.90
10441;DHT22;5268;49.346;9.522;2022-10-31T06:51:42;9.80;99.90
10441;DHT22;5268;49.346;9.522;2022-10-31T06:56:47;10.10;99.90
10441;DHT22;5268;49.346;9.522;2022-10-31T07:01:49;10.50;99.90
10441;DHT22;5268;49.346;9.522;2022-10-31T07:06:51;10.80;99.90
10441;DHT22;5268;49.346;9.522;2022-10-31T07:11:55;11.40;99.90
10441;DHT22;5268;49.346;9.522;2022-10-31T07:16:56;11.90;99.90
10441;DHT22;5268;49.346;9.522;2022-10-31T07:21:58;12.50;99.90
10441;DHT22;5268;49.346;9.522;2022-10-31T07:27:02;13.10;99.90
10441;DHT22;5268;49.346;9.522;2022-10-31T07:32:04;13.50;99.90
10441;DHT22;5268;49.346;9.522;2022-10-31T07:37:07;13.80;99.90
10441;DHT22;5268;49.346;9.522;2022-10-31T07:42:11;14.30;99.90
10441;DHT22;5268;49.346;9.522;2022-10-31T07:47:13;14.70;99.90
10441;DHT22;5268;49.346;9.522;2022-10-31T07:52:14;15.10;99.90
10441;DHT22;5268;49.346;9.522;2022-10-31T07:57:18;15.20;99.90
10441;DHT22;5268;49.346;9.522;2022-10-31T08:02:20;15.60;99.90
10441;DHT22;5268;49.346;9.522;2022-10-31T08:07:22;15.80;99.90
10441;DHT22;5268;49.346;9.522;2022-10-31T08:12:25;15.70;99.90
10441;DHT22;5268;49.346;9.522;2022-10-31T08:17:27;15.50;99.90
10441;DHT22;5268;49.346;9.522;2022-10-31T08:22:30;15.90;99.90
10441;DHT22;5268;49.346;9.522;2022-10-31T08:27:33;16.40;99.90
10441;DHT22;5268;49.346;9.522;2022-10-31T08:32:35;16.70;99.90
10441;DHT22;5268;49.346;9.522;2022-10-31T08:37:37;16.90;99.90
10441;DHT22;5268;49.346;9.522;2022-10-31T08:42:41;16.30;99.90
10441;DHT22;5268;49.346;9.522;2022-10-31T08:47:43;16.20;99.90
10441;DHT22;5268;49.346;9.522;2022-10-31T08:52:45;15.90;99.90
10441;DHT22;5268;49.346;9.522;2022-10-31T08:57:53;15.60;99.90
10441;DHT22;5268;49.346;9.522;2022-10-31T09:02:57;15.50;99.90
10441;DHT22;5268;49.346;9.522;2022-10-31T09:08:02;15.40;99.90
10441;DHT22;5268;49.346;9.522;2022-10-31T09:13:08;15.30;99.90
10441;DHT22;5268;49.346;9.522;2022-10-31T09:18:12;15.20;99.90
10441;DHT22;5268;49.346;9.522;2022-10-31T09:23:16;15.00;99.90
10441;DHT22;5268;49.346;9.522;2022-10-31T09:28:22;15.00;99.90
10441;DHT22;5268;49.346;9.522;2022-10-31T09:33:24;15.10;99.90
10441;DHT22;5268;49.346;9.522;2022-10-31T09:38:26;15.00;99.90
10441;DHT22;5268;49.346;9.522;2022-10-31T09:43:33;15.10;99.90
10441;DHT22;5268;49.346;9.522;2022-10-31T09:48:56;15.20;99.90
10441;DHT22;5268;49.346;9.522;2022-10-31T09:54:05;15.40;99.90
10441;DHT22;5268;49.346;9.522;2022-10-31T09:59:16;15.70;99.90
10441;DHT22;5268;49.346;9.522;2022-10-31T10:04:30;15.90;99.90
10441;DHT22;5268;49.346;9.522;2022-10-31T10:09:34;16.10;99.90
10441;DHT22;5268;49.346;9.522;2022-10-31T10:14:47;16.20;99.90
10441;DHT22;5268;49.346;9.522;2022-10-31T10:25:23;16.50;99.90
10441;DHT22;5268;49.346;9.522;2022-10-31T10:30:33;16.60;99.90
10441;DHT22;5268;49.346;9.522;2022-10-31T10:35:40;16.80;99.90
10441;DHT22;5268;49.346;9.522;2022-10-31T10:40:43;17.00;99.90
10441;DHT22;5268;49.346;9.522;2022-10-31T10:45:50;17.10;99.90
10441;DHT22;5268;49.346;9.522;2022-10-31T10:51:22;17.30;99.90
10441;DHT22;5268;49.346;9.522;2022-10-31T10:56:34;17.50;99.90
10441;DHT22;5268;49.346;9.522;2022-10-31T11:01:40;17.60;99.90
10441;DHT22;5268;49.346;9.522;2022-10-31T11:06:43;17.60;99.90
10441;DHT22;5268;49.346;9.522;2022-10-31T11:11:45;17.60;99.90
10441;DHT22;5268;49.346;9.522;2022-10-31T11:16:51;17.70;99.90
10441;DHT22;5268;49.346;9.522;2022-10-31T11:21:54;17.70;99.90
10441;DHT22;5268;49.346;9.522;2022-10-31T11:27:13;17.80;99.90
10441;DHT22;5268;49.346;9.522;2022-10-31T11:32:20;17.80;99.90
10441;DHT22;5268;49.346;9.522;2022-10-31T11:37:24;17.80;99.90
10441;DHT22;5268;49.346;9.522;2022-10-31T11:42:29;17.90;99.90
10441;DHT22;5268;49.346;9.522;2022-10-31T11:47:41;17.80;99.90
10441;DHT22;5268;49.346;9.522;2022-10-31T11:52:45;17.90;99.90
10441;DHT22;5268;49.346;9.522;2022-10-31T11:57:48;17.90;99.90
10441;DHT22;5268;49.346;9.522;2022-10-31T12:03:04;17.90;99.90
10441;DHT22;5268;49.346;9.522;2022-10-31T12:08:12;18.00;99.90
10441;DHT22;5268;49.346;9.522;2022-10-31T12:13:32;18.00;99.90
10441;DHT22;5268;49.346;9.522;2022-10-31T12:18:52;18.10;99.90
10441;DHT22;5268;49.346;9.522;2022-10-31T12:24:06;18.20;99.90
10441;DHT22;5268;49.346;9.522;2022-10-31T12:29:30;18.20;99.90
10441;DHT22;5268;49.346;9.522;2022-10-31T12:35:01;18.20;99.90
10441;DHT22;5268;49.346;9.522;2022-10-31T12:40:20;18.30;99.90
10441;DHT22;5268;49.346;9.522;2022-10-31T12:45:41;18.30;99.90
10441;DHT22;5268;49.346;9.522;2022-10-31T12:50:52;18.40;99.90
10441;DHT22;5268;49.346;9.522;2022-10-31T12:56:06;18.40;99.90
10441;DHT22;5268;49.346;9.522;2022-10-31T13:01:16;18.40;99.90
10441;DHT22;5268;49.346;9.522;2022-10-31T13:06:22;18.40;99.90
10441;DHT22;5268;49.346;9.522;2022-10-31T13:11:27;18.40;99.90
10441;DHT22;5268;49.346;9.522;2022-10-31T13:16:35;18.40;99.90
10441;DHT22;5268;49.346;9.522;2022-10-31T13:21:42;18.40;99.90
10441;DHT22;5268;49.346;9.522;2022-10-31T13:26:49;18.40;99.90
10441;DHT22;5268;49.346;9.522;2022-10-31T13:31:52;18.50;99.90
10441;DHT22;5268;49.346;9.522;2022-10-31T13:37:01;18.40;99.90
10441;DHT22;5268;49.346;9.522;2022-10-31T13:42:14;18.40;99.90
10441;DHT22;5268;49.346;9.522;2022-10-31T13:47:22;18.40;99.90
10441;DHT22;5268;49.346;9.522;2022-10-31T13:52:26;18.30;99.90
10441;DHT22;5268;49.346;9.522;2022-10-31T13:57:35;18.20;99.90
10441;DHT22;5268;49.346;9.522;2022-10-31T14:02:45;18.20;99.90
10441;DHT22;5268;49.346;9.522;2022-10-31T14:07:50;18.10;99.90
10441;DHT22;5268;49.346;9.522;2022-10-31T14:12:54;18.10;99.90
10441;DHT22;5268;49.346;9.522;2022-10-31T14:18:06;18.00;99.90
10441;DHT22;5268;49.346;9.522;2022-10-31T14:23:38;17.90;99.90
10441;DHT22;5268;49.346;9.522;2022-10-31T14:28:40;17.90;99.90
10441;DHT22;5268;49.346;9.522;2022-10-31T14:33:43;17.80;99.90
10441;DHT22;5268;49.346;9.522;2022-10-31T14:38:53;17.90;99.90
10441;DHT22;5268;49.346;9.522;2022-10-31T14:44:16;17.90;99.90
10441;DHT22;5268;49.346;9.522;2022-10-31T14:54:52;18.10;99.90
10441;DHT22;5268;49.346;9.522;2022-10-31T14:59:58;18.20;99.90
10441;DHT22;5268;49.346;9.522;2022-10-31T15:05:07;18.20;99.90
10441;DHT22;5268;49.346;9.522;2022-10-31T15:10:20;18.20;99.90
10441;DHT22;5268;49.346;9.522;2022-10-31T15:15:24;18.10;99.90
10441;DHT22;5268;49.346;9.522;2022-10-31T15:20:28;17.80;99.90
10441;DHT22;5268;49.346;9.522;2022-10-31T15:25:34;17.70;99.90
10441;DHT22;5268;49.346;9.522;2022-10-31T15:30:37;17.50;99.90
10441;DHT22;5268;49.346;9.522;2022-10-31T15:35:39;17.40;99.90
10441;DHT22;5268;49.346;9.522;2022-10-31T15:40:52;17.30;99.90
10441;DHT22;5268;49.346;9.522;2022-10-31T15:45:57;17.20;99.90
10441;DHT22;5268;49.346;9.522;2022-10-31T15:51:06;17.10;99.90
10441;DHT22;5268;49.346;9.522;2022-10-31T15:56:20;17.00;99.90
10441;DHT22;5268;49.346;9.522;2022-10-31T16:01:27;16.80;99.90
10441;DHT22;5268;49.346;9.522;2022-10-31T16:06:30;16.70;99.90
10441;DHT22;5268;49.346;9.522;2022-10-31T16:11:36;16.60;99.90
10441;DHT22;5268;49.346;9.522;2022-10-31T16:16:42;16.40;99.90
10441;DHT22;5268;49.346;9.522;2022-10-31T16:21:46;16.30;99.90
10441;DHT22;5268;49.346;9.522;2022-10-31T16:27:01;16.10;99.90
10441;DHT22;5268;49.346;9.522;2022-10-31T16:32:34;16.10;99.90
10441;DHT22;5268;49.346;9.522;2022-10-31T16:38:02;16.00;99.90
10441;DHT22;5268;49.346;9.522;2022-10-31T16:43:10;16.00;99.90
10441;DHT22;5268;49.346;9.522;2022-10-31T16:48:14;15.90;99.90
10441;DHT22;5268;49.346;9.522;2022-10-31T16:53:17;15.90;99.90
10441;DHT22;5268;49.346;9.522;2022-10-31T16:58:22;15.80;99.90
10441;DHT22;5268;49.346;9.522;2022-10-31T17:03:25;15.70;99.90
10441;DHT22;5268;49.346;9.522;2022-10-31T17:08:27;15.70;99.90
10441;DHT22;5268;49.346;9.522;2022-10-31T17:13:33;15.70;99.90
10441;DHT22;5268;49.346;9.522;2022-10-31T17:18:36;15.60;99.90
10441;DHT22;5268;49.346;9.522;2022-10-31T17:23:38;15.40;99.90
10441;DHT22;5268;49.346;9.522;2022-10-31T17:28:41;15.30;99.90
10441;DHT22;5268;49.346;9.522;2022-10-31T17:33:43;15.20;99.90
10441;DHT22;5268;49.346;9.522;2022-10-31T17:38:46;15.10;99.90
10441;DHT22;5268;49.346;9.522;2022-10-31T17:43:53;15.00;99.90
10441;DHT22;5268;49.346;9.522;2022-10-31T17:48:56;14.90;99.90
10441;DHT22;5268;49.346;9.522;2022-10-31T17:54:00;14.90;99.90
10441;DHT22;5268;49.346;9.522;2022-10-31T17:59:03;14.90;99.90
10441;DHT22;5268;49.346;9.522;2022-10-31T18:04:05;14.80;99.90
10441;DHT22;5268;49.346;9.522;2022-10-31T18:09:07;14.80;99.90
10441;DHT22;5268;49.346;9.522;2022-10-31T18:14:11;14.70;99.90
10441;DHT22;5268;49.346;9.522;2022-10-31T18:19:13;14.60;99.90
10441;DHT22;5268;49.346;9.522;2022-10-31T18:24:16;14.60;99.90
10441;DHT22;5268;49.346;9.522;2022-10-31T18:29:19;14.50;99.90
10441;DHT22;5268;49.346;9.522;2022-10-31T18:34:21;14.40;99.90
10441;DHT22;5268;49.346;9.522;2022-10-31T18:39:24;14.30;99.90
10441;DHT22;5268;49.346;9.522;2022-10-31T18:44:27;14.20;99.90
10441;DHT22;5268;49.346;9.522;2022-10-31T18:49:30;14.20;99.90
10441;DHT22;5268;49.346;9.522;2022-10-31T18:54:33;14.10;99.90
10441;DHT22;5268;49.346;9.522;2022-10-31T18:59:36;14.00;99.90
10441;DHT22;5268;49.346;9.522;2022-10-31T19:04:38;14.00;99.90
10441;DHT22;5268;49.346;9.522;2022-10-31T19:09:40;13.80;99.90
10441;DHT22;5268;49.346;9.522;2022-10-31T19:14:44;13.70;99.90
10441;DHT22;5268;49.346;9.522;2022-10-31T19:19:46;13.60;99.90
10441;DHT22;5268;49.346;9.522;2022-10-31T19:24:48;13.50;99.90
10441;DHT22;5268;49.346;9.522;2022-10-31T19:29:51;13.40;99.90
10441;DHT22;5268;49.346;9.522;2022-10-31T19:34:53;13.20;99.90
10441;DHT22;5268;49.346;9.522;2022-10-31T19:39:55;13.00;99.90
10441;DHT22;5268;49.346;9.522;2022-10-31T19:44:59;13.00;99.90
10441;DHT22;5268;49.346;9.522;2022-10-31T19:50:01;13.00;99.90
10441;DHT22;5268;49.346;9.522;2022-10-31T19:55:05;13.10;99.90
10441;DHT22;5268;49.346;9.522;2022-10-31T20:00:10;13.10;99.90
10441;DHT22;5268;49.346;9.522;2022-10-31T20:05:12;13.10;99.90
10441;DHT22;5268;49.346;9.522;2022-10-31T20:10:14;13.10;99.90
10441;DHT22;5268;49.346;9.522;2022-10-31T20:15:18;13.10;99.90
10441;DHT22;5268;49.346;9.522;2022-10-31T20:20:20;13.10;99.90
10441;DHT22;5268;49.346;9.522;2022-10-31T20:25:22;13.10;99.90
10441;DHT22;5268;49.346;9.522;2022-10-31T20:30:25;13.10;99.90
10441;DHT22;5268;49.346;9.522;2022-10-31T20:35:27;13.10;99.90
10441;DHT22;5268;49.346;9.522;2022-10-31T20:40:29;13.10;99.90
10441;DHT22;5268;49.346;9.522;2022-10-31T20:45:33;13.20;99.90
10441;DHT22;5268;49.346;9.522;2022-10-31T20:50:37;13.20;99.90
10441;DHT22;5268;49.346;9.522;2022-10-31T20:55:39;13.20;99.90
10441;DHT22;5268;49.346;9.522;2022-10-31T21:00:43;13.20;99.90
10441;DHT22;5268;49.346;9.522;2022-10-31T21:05:51;13.20;99.90
10441;DHT22;5268;49.346;9.522;2022-10-31T21:10:53;13.20;99.90
10441;DHT22;5268;49.346;9.522;2022-10-31T21:16:02;13.20;99.90
10441;DHT22;5268;49.346;9.522;2022-10-31T21:21:07;13.20;99.90
10441;DHT22;5268;49.346;9.522;2022-10-31T21:26:12;13.20;99.90
10441;DHT22;5268;49.346;9.522;2022-10-31T21:31:17;13.20;99.90
10441;DHT22;5268;49.346;9.522;2022-10-31T21:36:19;13.20;99.90
10441;DHT22;5268;49.346;9.522;2022-10-31T21:41:22;13.20;99.90
10441;DHT22;5268;49.346;9.522;2022-10-31T21:46:28;13.10;99.90
10441;DHT22;5268;49.346;9.522;2022-10-31T21:51:31;13.10;99.90
10441;DHT22;5268;49.346;9.522;2022-10-31T21:56:34;13.00;99.90
10441;DHT22;5268;49.346;9.522;2022-10-31T22:01:37;13.00;99.90
10441;DHT22;5268;49.346;9.522;2022-10-31T22:06:39;13.00;99.90
10441;DHT22;5268;49.346;9.522;2022-10-31T22:11:42;13.00;99.90
10441;DHT22;5268;49.346;9.522;2022-10-31T22:16:45;13.00;99.90
10441;DHT22;5268;49.346;9.522;2022-10-31T22:21:47;13.00;99.90
10441;DHT22;5268;49.346;9.522;2022-10-31T22:26:49;13.00;99.90
